Time;durP1;ratioP1;P1;durP2;ratioP2;P2;SDS_P1;SDS_P2;PMS_P1;PMS_P2;Temp;Humidity;BMP_temperature;BMP_pressure;BME280_temperature;BME280_humidity;BME280_pressure;Samples;Min_cycle;Max_cycle;Signal;HPM_P1;HPM_P2
2023/03/21 00:01:14;;;;;;;18.30;13.15;;;9.70;99.90;;;;;;5059082;28;20028;-84
2023/03/21 00:03:45;;;;;;;16.38;12.18;;;9.70;99.90;;;;;;5065406;28;20059;-84
2023/03/21 00:06:12;;;;;;;26.27;17.00;;;9.70;99.90;;;;;;5059830;28;20402;-85
2023/03/21 00:08:38;;;;;;;26.45;18.08;;;9.70;99.90;;;;;;5057196;28;20036;-84
2023/03/21 00:11:06;;;;;;;23.00;19.08;;;9.70;99.90;;;;;;5067431;28;20065;-84
2023/03/21 00:13:32;;;;;;;25.33;18.67;;;9.70;99.90;;;;;;5066527;28;20201;-85
2023/03/21 00:16:14;;;;;;;22.83;16.92;;;9.70;99.90;;;;;;5063005;28;20025;-83
2023/03/21 00:18:51;;;;;;;19.15;15.38;;;9.70;99.90;;;;;;5063434;28;20036;-84
2023/03/21 00:21:27;;;;;;;18.90;15.55;;;9.70;99.90;;;;;;5061672;28;20021;-85
2023/03/21 00:23:53;;;;;;;20.00;15.52;;;9.70;99.90;;;;;;5057027;28;20045;-84
2023/03/21 00:26:21;;;;;;;21.40;16.75;;;9.70;99.90;;;;;;5061971;28;20009;-83
2023/03/21 00:28:47;;;;;;;22.73;18.05;;;9.70;99.90;;;;;;5055724;28;20462;-83
2023/03/21 00:31:13;;;;;;;21.88;16.88;;;9.70;99.90;;;;;;5078863;28;20467;-84
2023/03/21 00:33:38;;;;;;;24.50;16.75;;;9.70;99.90;;;;;;5056525;28;20029;-84
2023/03/21 00:36:05;;;;;;;23.50;18.13;;;9.70;99.90;;;;;;5063425;28;20039;-83
2023/03/21 00:38:31;;;;;;;23.63;17.95;;;9.70;99.90;;;;;;5060993;28;20116;-84
2023/03/21 00:40:56;;;;;;;22.90;17.98;;;9.70;99.90;;;;;;5063686;28;20107;-83
2023/03/21 00:43:28;;;;;;;27.27;18.77;;;9.70;99.90;;;;;;5062611;28;20044;-83
2023/03/21 00:45:55;;;;;;;26.55;19.08;;;9.70;99.90;;;;;;5061887;28;20029;-83
2023/03/21 00:48:21;;;;;;;22.60;17.17;;;9.70;99.90;;;;;;5060731;28;20036;-84
2023/03/21 00:50:46;;;;;;;22.85;16.58;;;9.70;99.90;;;;;;5077745;28;20024;-84
2023/03/21 00:53:13;;;;;;;26.77;19.92;;;9.70;99.90;;;;;;5055914;28;20024;-83
2023/03/21 00:55:39;;;;;;;23.60;17.63;;;9.70;99.90;;;;;;5063516;28;20025;-84
2023/03/21 00:58:06;;;;;;;23.15;18.52;;;9.70;99.90;;;;;;5062978;28;20414;-85
2023/03/21 01:00:32;;;;;;;24.65;18.88;;;9.80;99.90;;;;;;5063048;28;20040;-84
2023/03/21 01:03:04;;;;;;;22.45;17.73;;;9.80;99.90;;;;;;5055146;28;20166;-83
2023/03/21 01:08:18;;;;;;;23.45;18.13;;;9.80;99.90;;;;;;5063015;28;20145;-84
2023/03/21 01:10:46;;;;;;;22.98;17.48;;;9.80;99.90;;;;;;5054952;28;20028;-85
2023/03/21 01:13:13;;;;;;;23.90;18.33;;;9.70;99.90;;;;;;5055325;28;20081;-84
2023/03/21 01:15:54;;;;;;;23.15;18.75;;;9.70;99.90;;;;;;5056517;28;20028;-84
2023/03/21 01:18:26;;;;;;;24.15;18.30;;;9.70;99.90;;;;;;5060435;28;20036;-84
2023/03/21 01:20:54;;;;;;;28.20;19.35;;;9.70;99.90;;;;;;5055467;28;20027;-85
2023/03/21 01:23:20;;;;;;;23.52;17.25;;;9.70;99.90;;;;;;5062793;28;20406;-85
2023/03/21 01:25:47;;;;;;;23.27;16.25;;;9.70;99.90;;;;;;5061585;28;20462;-85
2023/03/21 01:28:13;;;;;;;20.55;15.82;;;9.70;99.90;;;;;;5077532;28;22256;-84
2023/03/21 01:30:43;;;;;;;18.85;15.15;;;9.70;99.90;;;;;;5053891;28;20082;-85
2023/03/21 01:33:08;;;;;;;18.77;15.27;;;9.70;99.90;;;;;;5067178;28;20032;-85
2023/03/21 01:35:36;;;;;;;25.95;18.13;;;9.70;99.90;;;;;;5061622;28;20063;-85
2023/03/21 01:38:01;;;;;;;19.90;15.30;;;9.70;99.90;;;;;;5061077;28;20028;-85
2023/03/21 01:40:27;;;;;;;18.00;13.75;;;9.70;99.90;;;;;;5056043;28;20031;-84
2023/03/21 01:42:53;;;;;;;19.52;14.77;;;9.70;99.90;;;;;;5063126;28;20047;-85
2023/03/21 01:45:56;;;;;;;19.58;14.82;;;9.70;99.90;;;;;;5059962;28;20070;-85
2023/03/21 01:48:23;;;;;;;19.37;14.57;;;9.70;99.90;;;;;;5062556;28;20077;-85
2023/03/21 01:50:50;;;;;;;21.85;15.85;;;9.70;99.90;;;;;;5055442;28;20373;-83
2023/03/21 01:53:20;;;;;;;20.58;16.15;;;9.70;99.90;;;;;;5056002;28;20496;-83
2023/03/21 01:55:46;;;;;;;19.67;14.60;;;9.70;99.90;;;;;;5056180;28;20059;-83
2023/03/21 01:58:17;;;;;;;21.17;15.43;;;9.60;99.90;;;;;;5062036;28;20020;-85
2023/03/21 02:00:49;;;;;;;20.80;14.30;;;9.60;99.90;;;;;;5055428;28;20539;-84
2023/03/21 02:03:15;;;;;;;19.70;13.82;;;9.60;99.90;;;;;;5062034;28;20110;-85
2023/03/21 02:06:03;;;;;;;18.20;13.57;;;9.60;99.90;;;;;;5056599;28;22330;-85
2023/03/21 02:08:30;;;;;;;16.50;12.88;;;9.60;99.90;;;;;;5055839;28;20434;-85
2023/03/21 02:10:57;;;;;;;17.60;12.85;;;9.60;99.90;;;;;;5062291;28;20040;-84
2023/03/21 02:13:23;;;;;;;20.17;15.32;;;9.60;99.90;;;;;;5060864;28;20117;-84
2023/03/21 02:16:14;;;;;;;20.75;15.23;;;9.70;99.90;;;;;;5065577;28;20066;-84
2023/03/21 02:18:59;;;;;;;22.75;15.13;;;9.70;99.90;;;;;;5048925;28;20288;-84
2023/03/21 02:21:30;;;;;;;18.63;13.90;;;9.60;99.90;;;;;;5047706;28;20032;-83
2023/03/21 02:24:12;;;;;;;21.40;15.30;;;9.70;99.90;;;;;;5062754;28;20498;-83
2023/03/21 02:27:02;;;;;;;18.23;14.38;;;9.60;99.90;;;;;;5060753;28;20562;-84
2023/03/21 02:29:46;;;;;;;21.00;15.07;;;9.60;99.90;;;;;;5065841;28;20028;-83
2023/03/21 02:32:35;;;;;;;21.42;15.38;;;9.60;99.90;;;;;;5065738;28;20115;-83
2023/03/21 02:35:15;;;;;;;20.33;15.20;;;9.60;99.90;;;;;;5065901;28;20515;-82
2023/03/21 02:37:51;;;;;;;21.67;15.63;;;9.60;99.90;;;;;;5082036;28;20032;-83
2023/03/21 02:40:40;;;;;;;21.58;16.05;;;9.60;99.90;;;;;;5063408;28;20359;-84
2023/03/21 02:43:11;;;;;;;21.08;15.25;;;9.60;99.90;;;;;;5080527;28;20040;-84
2023/03/21 02:46:00;;;;;;;24.35;16.20;;;9.60;99.90;;;;;;5064713;28;20024;-84
2023/03/21 02:48:38;;;;;;;19.92;15.10;;;9.60;99.90;;;;;;5080284;28;20020;-84
2023/03/21 02:51:06;;;;;;;20.42;16.30;;;9.60;99.90;;;;;;5063829;28;20024;-84
2023/03/21 02:53:36;;;;;;;23.77;17.33;;;9.60;99.90;;;;;;5041141;28;20107;-83
2023/03/21 02:56:03;;;;;;;25.23;18.27;;;9.60;99.90;;;;;;5056807;28;20052;-84
2023/03/21 02:58:30;;;;;;;25.70;18.17;;;9.60;99.90;;;;;;5063528;28;20435;-83
2023/03/21 03:00:56;;;;;;;24.27;17.67;;;9.60;99.90;;;;;;5058346;28;20056;-83
2023/03/21 03:03:22;;;;;;;24.15;18.73;;;9.60;99.90;;;;;;5068741;28;20163;-84
2023/03/21 03:05:54;;;;;;;24.33;18.25;;;9.60;99.90;;;;;;5057138;28;20025;-83
2023/03/21 03:08:51;;;;;;;20.63;15.93;;;9.70;99.90;;;;;;5065006;28;20031;-83
2023/03/21 03:11:27;;;;;;;25.05;18.45;;;9.70;99.90;;;;;;5080819;28;20110;-84
2023/03/21 03:14:39;;;;;;;25.67;18.50;;;9.70;99.90;;;;;;5063904;28;20028;-85
2023/03/21 03:17:36;;;;;;;22.20;17.02;;;9.60;99.90;;;;;;5028565;28;20040;-86
2023/03/21 03:20:13;;;;;;;23.00;17.67;;;9.60;99.90;;;;;;5065013;28;20023;-86
2023/03/21 03:22:46;;;;;;;22.20;16.65;;;9.60;99.90;;;;;;5065730;28;20040;-85
2023/03/21 03:25:17;;;;;;;24.05;18.42;;;9.60;99.90;;;;;;5064574;28;20065;-85
2023/03/21 03:27:43;;;;;;;20.20;15.10;;;9.60;99.90;;;;;;5059651;28;20035;-85
2023/03/21 03:30:10;;;;;;;22.73;14.77;;;9.60;99.90;;;;;;5059193;28;20085;-84
2023/03/21 03:32:45;;;;;;;23.98;17.88;;;9.60;99.90;;;;;;5065221;28;20486;-85
2023/03/21 03:35:14;;;;;;;21.15;15.30;;;9.60;99.90;;;;;;5063170;28;20055;-85
2023/03/21 03:37:41;;;;;;;20.25;16.60;;;9.60;99.90;;;;;;5065072;28;20813;-84
2023/03/21 03:40:12;;;;;;;19.63;14.98;;;9.60;99.90;;;;;;5063384;28;20417;-85
2023/03/21 03:42:48;;;;;;;21.23;14.65;;;9.60;99.90;;;;;;5080804;28;20125;-84
2023/03/21 03:45:14;;;;;;;22.02;13.65;;;9.60;99.90;;;;;;5073502;28;20441;-84
2023/03/21 03:47:56;;;;;;;18.35;13.73;;;9.60;99.90;;;;;;5065316;28;20085;-84
2023/03/21 03:50:40;;;;;;;16.35;11.95;;;9.60;99.90;;;;;;5080707;28;20024;-85
2023/03/21 03:53:12;;;;;;;20.23;12.60;;;9.60;99.90;;;;;;5064409;28;20338;-85
2023/03/21 03:55:38;;;;;;;18.77;12.35;;;9.60;99.90;;;;;;5063693;28;20035;-83
2023/03/21 03:58:04;;;;;;;17.38;11.77;;;9.50;99.90;;;;;;5065040;28;20032;-85
2023/03/21 04:00:34;;;;;;;22.17;15.70;;;9.60;99.90;;;;;;5056236;28;20097;-85
2023/03/21 04:03:00;;;;;;;22.48;14.02;;;9.50;99.90;;;;;;5064586;28;20044;-84
2023/03/21 04:05:26;;;;;;;17.60;13.35;;;9.50;99.90;;;;;;5064930;28;20534;-86
2023/03/21 04:07:52;;;;;;;21.63;13.75;;;9.50;99.90;;;;;;5065219;28;20037;-85
2023/03/21 04:10:19;;;;;;;22.65;14.05;;;9.50;99.90;;;;;;5058201;28;20036;-86
2023/03/21 04:12:45;;;;;;;19.00;12.93;;;9.50;99.90;;;;;;5059430;28;20033;-84
2023/03/21 04:15:10;;;;;;;18.35;11.93;;;9.50;99.90;;;;;;5064463;28;20035;-83
2023/03/21 04:17:38;;;;;;;16.05;11.60;;;9.40;99.90;;;;;;5063043;28;20044;-85
2023/03/21 04:20:06;;;;;;;15.27;11.15;;;9.40;99.90;;;;;;5064190;28;20032;-84
2023/03/21 04:22:32;;;;;;;18.30;10.95;;;9.40;99.90;;;;;;5069968;28;20093;-85
2023/03/21 04:24:57;;;;;;;19.27;12.43;;;9.40;99.90;;;;;;5060744;28;20020;-84
2023/03/21 04:27:23;;;;;;;16.13;10.88;;;9.40;99.90;;;;;;5064049;28;20588;-84
2023/03/21 04:29:48;;;;;;;18.77;11.30;;;9.40;99.90;;;;;;5064227;28;20107;-84
2023/03/21 04:32:18;;;;;;;17.42;10.85;;;9.40;99.90;;;;;;5062067;28;20408;-86
2023/03/21 04:34:48;;;;;;;16.50;10.40;;;9.40;99.90;;;;;;5079783;28;20463;-85
2023/03/21 04:37:15;;;;;;;14.48;9.27;;;9.40;99.90;;;;;;5063327;28;20032;-84
2023/03/21 04:39:41;;;;;;;16.55;9.73;;;9.40;99.90;;;;;;5063516;28;20464;-85
2023/03/21 04:42:07;;;;;;;13.38;8.15;;;9.40;99.90;;;;;;5064361;28;20033;-84
2023/03/21 04:44:32;;;;;;;15.23;9.88;;;9.40;99.90;;;;;;5064882;28;20036;-85
2023/03/21 04:46:58;;;;;;;16.67;9.35;;;9.50;99.90;;;;;;5064041;28;20033;-84
2023/03/21 04:49:24;;;;;;;14.30;9.30;;;9.50;99.90;;;;;;5057008;28;20953;-85
2023/03/21 04:51:50;;;;;;;17.60;9.70;;;9.50;99.90;;;;;;5063899;28;20390;-85
2023/03/21 04:54:15;;;;;;;15.65;9.25;;;9.50;99.90;;;;;;5061184;28;20033;-85
2023/03/21 04:56:41;;;;;;;12.88;8.60;;;9.50;99.90;;;;;;5061749;28;20036;-83
2023/03/21 04:59:14;;;;;;;16.98;10.48;;;9.50;99.90;;;;;;5060807;28;20025;-82
2023/03/21 05:01:42;;;;;;;16.33;10.68;;;9.50;99.90;;;;;;5075985;28;20028;-84
2023/03/21 05:04:08;;;;;;;15.27;9.90;;;9.50;99.90;;;;;;5053530;28;20044;-84
2023/03/21 05:06:34;;;;;;;17.17;9.25;;;9.50;99.90;;;;;;5061278;28;20616;-85
2023/03/21 05:09:04;;;;;;;16.35;10.32;;;9.40;99.90;;;;;;5053467;28;20115;-83
2023/03/21 05:11:36;;;;;;;18.38;11.43;;;9.30;99.90;;;;;;5053294;28;20440;-84
2023/03/21 05:14:03;;;;;;;18.90;9.82;;;9.30;99.90;;;;;;5060192;28;20024;-84
2023/03/21 05:16:33;;;;;;;16.60;10.20;;;9.30;99.90;;;;;;5061981;28;20183;-84
2023/03/21 05:19:03;;;;;;;16.05;9.38;;;9.30;99.90;;;;;;5062089;28;20028;-84
2023/03/21 05:21:42;;;;;;;11.65;8.73;;;9.20;99.90;;;;;;5062708;28;20111;-84
2023/03/21 05:24:11;;;;;;;14.20;9.27;;;9.20;99.90;;;;;;5062366;28;20051;-84
2023/03/21 05:26:38;;;;;;;15.38;9.23;;;9.20;99.90;;;;;;5054828;28;20501;-84
2023/03/21 05:29:04;;;;;;;17.75;10.15;;;9.10;99.90;;;;;;5059419;28;20070;-85
2023/03/21 05:31:30;;;;;;;20.00;12.18;;;9.10;99.90;;;;;;5059742;28;20019;-84
2023/03/21 05:33:56;;;;;;;14.80;10.35;;;9.10;99.90;;;;;;5077656;28;20028;-86
2023/03/21 05:36:21;;;;;;;14.65;9.65;;;9.10;99.90;;;;;;5061718;28;20493;-84
2023/03/21 05:38:47;;;;;;;15.57;10.00;;;9.10;99.90;;;;;;5062163;28;20039;-85
2023/03/21 05:41:14;;;;;;;14.82;9.40;;;9.10;99.90;;;;;;5061917;28;20060;-85
2023/03/21 05:43:40;;;;;;;16.65;10.60;;;9.10;99.90;;;;;;5062683;28;20044;-84
2023/03/21 05:46:06;;;;;;;14.68;9.77;;;9.00;99.90;;;;;;5062369;28;20024;-86
2023/03/21 05:48:33;;;;;;;13.73;9.00;;;9.00;99.90;;;;;;5062829;28;20560;-84
2023/03/21 05:50:59;;;;;;;17.25;9.55;;;9.00;99.90;;;;;;5059186;28;20170;-84
2023/03/21 05:53:25;;;;;;;18.95;10.65;;;9.00;99.90;;;;;;5063423;28;20414;-84
2023/03/21 05:55:51;;;;;;;15.88;10.52;;;9.00;99.90;;;;;;5064580;28;20029;-85
2023/03/21 05:58:16;;;;;;;14.68;9.88;;;9.00;99.90;;;;;;5063739;28;20428;-85
2023/03/21 06:00:42;;;;;;;15.20;10.48;;;9.00;99.90;;;;;;5062695;28;20477;-83
2023/03/21 06:03:07;;;;;;;16.27;10.05;;;9.00;99.90;;;;;;5064020;28;20422;-84
2023/03/21 06:05:33;;;;;;;23.70;11.85;;;9.00;99.90;;;;;;5061831;28;20032;-84
2023/03/21 06:07:59;;;;;;;19.73;10.90;;;9.10;99.90;;;;;;5062915;28;20382;-84
2023/03/21 06:10:24;;;;;;;21.48;11.20;;;9.10;99.90;;;;;;5059719;28;20039;-84
2023/03/21 06:12:50;;;;;;;14.85;10.40;;;9.10;99.90;;;;;;5063386;28;20452;-84
2023/03/21 06:15:16;;;;;;;16.20;9.85;;;9.10;99.90;;;;;;5060250;28;20429;-83
2023/03/21 06:17:41;;;;;;;18.55;11.43;;;9.10;99.90;;;;;;5054784;28;20136;-85
2023/03/21 06:20:08;;;;;;;19.73;11.00;;;9.10;99.90;;;;;;5062377;28;20037;-85
2023/03/21 06:22:34;;;;;;;18.67;10.85;;;9.10;99.90;;;;;;5054613;28;20036;-85
2023/03/21 06:25:00;;;;;;;18.55;10.40;;;9.10;99.90;;;;;;5062651;28;20027;-86
2023/03/21 06:27:26;;;;;;;19.20;10.55;;;9.20;99.90;;;;;;5062193;28;20028;-86
2023/03/21 06:29:51;;;;;;;16.63;10.55;;;9.10;99.90;;;;;;5061476;28;20028;-85
2023/03/21 06:32:17;;;;;;;18.70;11.02;;;9.20;99.90;;;;;;5061203;28;20532;-83
2023/03/21 06:34:43;;;;;;;15.73;9.90;;;9.10;99.90;;;;;;5062243;28;20490;-84
2023/03/21 06:37:09;;;;;;;15.68;9.73;;;9.10;99.90;;;;;;5062662;28;20136;-84
2023/03/21 06:39:35;;;;;;;16.67;9.45;;;9.20;99.90;;;;;;5062762;28;20521;-84
2023/03/21 06:42:01;;;;;;;16.17;8.85;;;9.20;99.90;;;;;;5060794;28;20033;-85
2023/03/21 06:44:27;;;;;;;17.88;10.10;;;9.20;99.90;;;;;;5078700;28;20030;-84
2023/03/21 06:46:53;;;;;;;17.35;10.13;;;9.30;99.90;;;;;;5059090;28;20028;-83
2023/03/21 06:49:19;;;;;;;14.18;9.27;;;9.30;99.90;;;;;;5064065;28;20032;-85
2023/03/21 06:51:45;;;;;;;15.25;8.90;;;9.30;99.90;;;;;;5080238;28;20035;-85
2023/03/21 06:54:13;;;;;;;15.70;9.40;;;9.30;99.90;;;;;;5063301;28;20032;-85
2023/03/21 06:56:39;;;;;;;19.38;10.38;;;9.30;99.90;;;;;;5061308;28;20033;-86
2023/03/21 06:59:05;;;;;;;17.52;10.70;;;9.40;99.90;;;;;;5064033;28;20028;-86
2023/03/21 07:01:31;;;;;;;14.35;9.57;;;9.40;99.90;;;;;;5056363;28;20144;-84
2023/03/21 07:03:58;;;;;;;16.47;9.90;;;9.40;99.90;;;;;;5018875;28;1098591;-84
2023/03/21 07:06:27;;;;;;;14.88;9.30;;;9.40;99.90;;;;;;5056784;28;20278;-84
2023/03/21 07:08:54;;;;;;;16.17;9.88;;;9.50;99.90;;;;;;5078703;28;20027;-83
2023/03/21 07:11:20;;;;;;;17.27;10.60;;;9.50;99.90;;;;;;5063707;28;20025;-83
2023/03/21 07:13:47;;;;;;;15.93;10.25;;;9.50;99.90;;;;;;5057515;28;20168;-83
2023/03/21 07:16:14;;;;;;;18.08;11.73;;;9.60;99.90;;;;;;5056906;28;20452;-83
2023/03/21 07:18:40;;;;;;;14.95;9.55;;;9.60;99.90;;;;;;5064449;28;20032;-83
2023/03/21 07:21:06;;;;;;;15.25;8.63;;;9.60;99.90;;;;;;5064867;28;20073;-83
2023/03/21 07:23:32;;;;;;;15.52;8.93;;;9.70;99.90;;;;;;5064601;28;20127;-83
2023/03/21 07:25:58;;;;;;;13.75;8.30;;;9.70;99.90;;;;;;5063602;28;20115;-83
2023/03/21 07:28:23;;;;;;;16.88;8.82;;;9.70;99.90;;;;;;5057407;28;20119;-84
2023/03/21 07:31:03;;;;;;;11.30;7.47;;;9.80;99.90;;;;;;5059226;28;20029;-82
2023/03/21 07:33:29;;;;;;;14.77;8.10;;;9.80;99.90;;;;;;5064380;28;20037;-83
2023/03/21 07:35:56;;;;;;;15.77;8.25;;;9.80;99.90;;;;;;5056764;28;20539;-83
2023/03/21 07:38:22;;;;;;;12.55;7.60;;;9.80;99.90;;;;;;5063995;28;20020;-82
2023/03/21 07:40:48;;;;;;;16.23;8.25;;;9.80;99.90;;;;;;5057555;28;20037;-83
2023/03/21 07:43:15;;;;;;;13.82;9.27;;;9.80;99.90;;;;;;5064169;28;20033;-83
2023/03/21 07:45:41;;;;;;;14.13;8.88;;;9.70;99.90;;;;;;5062561;28;20111;-83
2023/03/21 07:48:07;;;;;;;12.32;8.23;;;9.70;99.90;;;;;;5064312;28;20032;-83
2023/03/21 07:50:33;;;;;;;15.40;8.77;;;9.70;99.90;;;;;;5063914;28;20024;-83
2023/03/21 07:52:59;;;;;;;16.70;9.13;;;9.70;99.90;;;;;;5064387;28;20671;-83
2023/03/21 07:55:25;;;;;;;13.13;8.60;;;9.70;99.90;;;;;;5055782;28;20486;-84
2023/03/21 07:57:51;;;;;;;15.95;8.98;;;9.70;99.90;;;;;;5063479;28;20031;-85
2023/03/21 08:00:21;;;;;;;13.10;7.78;;;9.70;99.90;;;;;;5058101;28;20433;-84
2023/03/21 08:02:55;;;;;;;12.98;8.65;;;9.70;99.90;;;;;;5062045;28;20768;-86
2023/03/21 08:05:29;;;;;;;16.75;9.15;;;9.60;99.90;;;;;;5063857;28;20547;-84
2023/03/21 08:07:55;;;;;;;13.70;8.27;;;9.60;99.90;;;;;;5063139;28;20059;-84
2023/03/21 08:10:21;;;;;;;13.10;7.63;;;9.70;99.90;;;;;;5057763;28;20025;-83
2023/03/21 08:12:47;;;;;;;13.93;7.55;;;9.70;99.90;;;;;;5062241;28;20035;-83
2023/03/21 08:15:13;;;;;;;12.88;7.05;;;9.70;99.90;;;;;;5064094;28;20094;-83
2023/03/21 08:17:39;;;;;;;17.75;8.77;;;9.70;99.90;;;;;;5062758;28;20056;-84
2023/03/21 08:20:07;;;;;;;13.90;7.78;;;9.70;99.90;;;;;;5078788;28;20056;-85
2023/03/21 08:22:34;;;;;;;13.55;8.00;;;9.70;99.90;;;;;;5057143;28;20040;-84
2023/03/21 08:25:01;;;;;;;11.82;7.85;;;9.80;99.90;;;;;;5079332;28;20021;-84
2023/03/21 08:27:26;;;;;;;12.35;6.70;;;9.80;99.90;;;;;;5063987;28;20043;-84
2023/03/21 08:29:52;;;;;;;13.50;8.18;;;9.80;99.90;;;;;;5057595;28;20017;-84
2023/03/21 08:32:18;;;;;;;15.35;8.27;;;9.80;99.90;;;;;;5068166;28;20146;-84
2023/03/21 08:34:44;;;;;;;15.50;8.50;;;9.80;99.90;;;;;;5062739;28;20028;-85
2023/03/21 08:37:10;;;;;;;14.05;7.85;;;9.90;99.90;;;;;;5063003;28;20547;-85
2023/03/21 08:39:35;;;;;;;13.57;9.30;;;9.90;99.90;;;;;;5057341;28;20040;-85
2023/03/21 08:42:01;;;;;;;18.10;9.27;;;9.90;99.90;;;;;;5060593;28;20428;-84
2023/03/21 08:44:26;;;;;;;15.90;9.13;;;9.90;99.90;;;;;;5062875;28;20024;-84
2023/03/21 08:46:52;;;;;;;14.88;8.13;;;9.90;99.90;;;;;;5058761;28;21132;-84
2023/03/21 08:49:18;;;;;;;13.00;7.93;;;9.90;99.90;;;;;;5060805;28;20296;-83
2023/03/21 08:51:44;;;;;;;15.32;8.23;;;10.00;99.90;;;;;;5061195;28;20029;-83
2023/03/21 08:54:20;;;;;;;14.63;7.85;;;10.00;99.90;;;;;;5063319;28;20111;-83
2023/03/21 08:56:47;;;;;;;14.80;8.40;;;10.10;99.90;;;;;;5065655;28;20590;-83
2023/03/21 08:59:12;;;;;;;15.02;7.78;;;10.10;99.90;;;;;;5062624;28;20390;-82
2023/03/21 09:01:38;;;;;;;18.42;8.93;;;10.10;99.90;;;;;;5055119;28;20039;-82
2023/03/21 09:04:06;;;;;;;14.20;7.85;;;10.10;99.90;;;;;;5059044;28;20138;-82
2023/03/21 09:06:32;;;;;;;17.20;9.27;;;10.10;99.90;;;;;;5078636;28;20083;-82
2023/03/21 09:08:58;;;;;;;14.65;9.63;;;10.10;99.90;;;;;;5063514;28;20032;-84
2023/03/21 09:11:24;;;;;;;23.30;9.98;;;10.10;99.90;;;;;;5060082;28;20028;-83
2023/03/21 09:13:50;;;;;;;20.00;11.02;;;10.10;99.90;;;;;;5055234;28;20081;-83
2023/03/21 09:16:15;;;;;;;17.45;9.63;;;10.10;99.90;;;;;;5078003;28;20104;-85
2023/03/21 09:18:45;;;;;;;16.58;9.13;;;10.10;99.90;;;;;;5062737;28;20031;-82
2023/03/21 09:21:13;;;;;;;17.35;10.73;;;10.20;99.90;;;;;;5059484;28;20151;-84
2023/03/21 09:23:39;;;;;;;12.02;8.18;;;10.20;99.90;;;;;;5077219;28;20032;-82
2023/03/21 09:26:06;;;;;;;18.67;9.45;;;10.30;99.90;;;;;;5062275;28;20047;-85
2023/03/21 09:28:33;;;;;;;17.83;10.57;;;10.30;99.90;;;;;;5059536;28;20021;-83
2023/03/21 09:31:01;;;;;;;16.40;9.95;;;10.30;99.90;;;;;;5077370;28;20032;-84
2023/03/21 09:33:28;;;;;;;19.92;10.73;;;10.30;99.90;;;;;;5051624;28;20037;-84
2023/03/21 09:35:54;;;;;;;12.77;9.35;;;10.40;99.90;;;;;;5060441;28;20111;-85
2023/03/21 09:38:20;;;;;;;21.10;11.18;;;10.40;99.90;;;;;;5055240;28;20036;-84
2023/03/21 09:41:24;;;;;;;16.48;9.50;;;10.40;99.90;;;;;;5056134;28;20460;-85
2023/03/21 09:44:07;;;;;;;;;;;10.40;99.90;;;;;;4994030;28;20856;-84
2023/03/21 09:46:42;;;;;;;16.20;9.23;;;10.30;99.90;;;;;;5069180;28;20024;-84
2023/03/21 09:49:19;;;;;;;18.20;9.75;;;10.40;99.90;;;;;;5061295;28;20036;-83
2023/03/21 09:51:49;;;;;;;18.45;9.55;;;10.30;99.90;;;;;;5060859;28;20765;-84
2023/03/21 09:54:27;;;;;;;15.05;10.10;;;10.30;99.90;;;;;;5060718;28;20089;-84
2023/03/21 09:56:57;;;;;;;15.80;9.55;;;10.30;99.90;;;;;;5062434;28;20064;-85
2023/03/21 09:59:39;;;;;;;16.23;9.27;;;10.30;99.90;;;;;;5054132;28;20035;-84
2023/03/21 10:02:39;;;;;;;16.65;9.98;;;10.40;99.90;;;;;;5061785;28;20024;-84
2023/03/21 10:05:23;;;;;;;21.30;10.65;;;10.40;99.90;;;;;;5058243;28;20046;-85
2023/03/21 10:07:58;;;;;;;16.08;8.77;;;10.50;99.90;;;;;;5054818;28;20028;-84
2023/03/21 10:10:27;;;;;;;18.75;9.88;;;10.60;99.90;;;;;;5061069;28;20025;-84
2023/03/21 10:12:54;;;;;;;14.25;8.63;;;10.70;99.90;;;;;;5055149;28;20178;-84
2023/03/21 10:15:23;;;;;;;16.88;8.73;;;10.70;99.90;;;;;;5059948;28;20474;-83
2023/03/21 10:18:01;;;;;;;13.80;8.70;;;10.80;99.90;;;;;;5062089;28;20032;-85
2023/03/21 10:20:36;;;;;;;17.98;9.27;;;11.00;99.90;;;;;;5060857;28;20067;-84
2023/03/21 10:23:11;;;;;;;18.92;9.82;;;11.20;99.90;;;;;;5055111;28;20486;-84
2023/03/21 10:25:50;;;;;;;15.77;9.23;;;11.30;99.90;;;;;;5062029;28;20024;-84
2023/03/21 10:28:22;;;;;;;14.27;8.85;;;11.40;99.90;;;;;;5053108;28;20028;-84
2023/03/21 10:30:52;;;;;;;13.35;8.45;;;11.40;99.90;;;;;;5059775;28;20032;-84
2023/03/21 10:33:26;;;;;;;14.48;9.38;;;11.50;99.90;;;;;;5060040;28;20024;-85
2023/03/21 10:35:57;;;;;;;14.35;8.75;;;11.40;99.90;;;;;;5061817;28;20048;-84
2023/03/21 10:38:25;;;;;;;16.75;9.40;;;11.40;99.90;;;;;;5059407;28;20051;-84
2023/03/21 10:40:51;;;;;;;13.90;8.32;;;11.40;99.90;;;;;;5062685;28;20093;-84
2023/03/21 10:43:36;;;;;;;15.45;8.10;;;11.40;99.90;;;;;;5065507;28;20490;-84
2023/03/21 10:46:28;;;;;;;15.32;8.07;;;11.50;99.90;;;;;;5058147;28;20020;-85
2023/03/21 10:48:54;;;;;;;15.57;9.02;;;11.50;99.90;;;;;;5055138;28;20036;-84
2023/03/21 10:51:24;;;;;;;14.70;7.95;;;11.50;99.90;;;;;;5065342;28;20025;-85
2023/03/21 10:53:56;;;;;;;14.07;8.40;;;11.50;99.90;;;;;;5064721;28;20055;-83
2023/03/21 10:56:26;;;;;;;16.48;8.45;;;11.50;99.90;;;;;;5080754;28;20584;-83
2023/03/21 10:58:54;;;;;;;14.73;8.98;;;11.60;99.90;;;;;;5064339;28;20055;-83
2023/03/21 11:01:38;;;;;;;13.63;7.95;;;11.80;99.90;;;;;;5057864;28;20036;-84
2023/03/21 11:04:16;;;;;;;13.85;8.30;;;12.10;99.90;;;;;;5065491;28;20052;-85
2023/03/21 11:06:45;;;;;;;11.60;7.07;;;12.30;99.90;;;;;;5064520;28;21034;-83
2023/03/21 11:09:20;;;;;;;12.65;7.72;;;12.30;99.90;;;;;;5064105;28;20381;-85
2023/03/21 11:12:45;;;;;;;12.15;8.27;;;12.30;99.90;;;;;;5065567;28;20118;-86
2023/03/21 11:15:40;;;;;;;13.90;7.35;;;12.40;99.90;;;;;;4987893;28;20033;-86
2023/03/21 11:18:18;;;;;;;10.50;6.75;;;12.30;99.90;;;;;;4989901;28;20064;-85
2023/03/21 11:20:49;;;;;;;9.88;6.05;;;12.20;99.90;;;;;;5057233;28;20037;-85
2023/03/21 11:23:15;;;;;;;12.43;6.95;;;12.30;99.90;;;;;;5058727;28;20086;-85
2023/03/21 11:25:41;;;;;;;12.70;6.75;;;12.20;99.90;;;;;;5056871;28;20028;-84
2023/03/21 11:28:18;;;;;;;15.40;8.25;;;12.20;99.90;;;;;;5056515;28;20048;-85
2023/03/21 11:30:56;;;;;;;9.52;6.57;;;12.30;99.90;;;;;;5081283;28;20020;-85
2023/03/21 11:33:26;;;;;;;14.13;7.10;;;12.30;99.90;;;;;;5061216;28;20098;-85
2023/03/21 11:36:15;;;;;;;11.80;7.50;;;12.40;99.90;;;;;;5063864;28;20025;-85
2023/03/21 11:38:41;;;;;;;10.30;7.03;;;12.30;99.90;;;;;;5063897;28;20035;-84
2023/03/21 11:41:07;;;;;;;11.10;6.70;;;12.30;99.90;;;;;;5062454;28;20671;-84
2023/03/21 11:43:38;;;;;;;12.15;6.63;;;12.40;99.90;;;;;;5062165;28;20402;-86
2023/03/21 11:46:03;;;;;;;12.52;6.63;;;12.50;99.90;;;;;;5062279;28;20025;-85
2023/03/21 11:48:35;;;;;;;9.45;5.72;;;12.70;99.90;;;;;;5055747;28;20043;-83
2023/03/21 11:51:42;;;;;;;13.98;6.68;;;12.80;99.90;;;;;;5057204;28;20416;-84
2023/03/21 11:54:14;;;;;;;10.85;6.28;;;12.90;99.90;;;;;;5060644;28;20024;-84
2023/03/21 11:56:46;;;;;;;10.82;6.47;;;13.00;99.90;;;;;;5054377;28;20178;-84
2023/03/21 11:59:24;;;;;;;11.73;6.65;;;13.00;99.90;;;;;;5053385;28;20055;-83
2023/03/21 12:02:11;;;;;;;10.95;5.95;;;13.10;99.90;;;;;;5054129;28;20047;-84
2023/03/21 12:04:43;;;;;;;11.75;5.80;;;13.10;99.90;;;;;;5061069;28;20117;-82
2023/03/21 12:07:30;;;;;;;11.85;6.55;;;13.00;99.90;;;;;;5059595;28;20690;-84
2023/03/21 12:10:05;;;;;;;10.55;5.72;;;13.00;99.90;;;;;;5061516;28;20021;-82
2023/03/21 12:12:55;;;;;;;11.40;7.00;;;12.90;99.90;;;;;;5078639;28;20033;-83
2023/03/21 12:15:23;;;;;;;8.95;5.65;;;13.00;99.90;;;;;;5062916;28;20035;-84
2023/03/21 12:18:06;;;;;;;9.98;6.13;;;13.10;99.90;;;;;;5059438;28;20036;-84
2023/03/21 12:20:40;;;;;;;9.70;5.00;;;13.10;99.90;;;;;;5063136;28;20032;-84
2023/03/21 12:23:27;;;;;;;8.65;5.38;;;13.10;99.90;;;;;;5060427;28;20623;-83
2023/03/21 12:26:15;;;;;;;10.07;5.68;;;13.10;99.90;;;;;;5061242;28;20035;-84
2023/03/21 12:28:50;;;;;;;10.82;4.93;;;13.00;99.90;;;;;;5058751;28;20033;-82
2023/03/21 12:31:36;;;;;;;7.78;4.93;;;13.00;99.90;;;;;;5061986;28;20076;-83
2023/03/21 12:34:23;;;;;;;7.82;4.63;;;12.90;99.90;;;;;;5059755;28;20090;-84
2023/03/21 12:37:09;;;;;;;8.75;4.80;;;12.90;99.90;;;;;;5063341;28;20028;-82
2023/03/21 12:39:38;;;;;;;8.02;4.25;;;12.90;99.90;;;;;;5061715;28;20528;-84
2023/03/21 12:42:35;;;;;;;8.10;5.25;;;12.90;99.90;;;;;;5055567;28;20056;-84
2023/03/21 12:45:12;;;;;;;7.10;5.28;;;12.90;99.90;;;;;;5069227;28;20110;-83
2023/03/21 12:47:40;;;;;;;11.45;5.13;;;12.80;99.90;;;;;;5055909;28;20021;-84
2023/03/21 12:50:23;;;;;;;9.48;4.97;;;12.80;99.90;;;;;;5061464;28;20025;-85
2023/03/21 12:52:54;;;;;;;8.23;4.88;;;12.80;99.90;;;;;;5062785;28;20025;-83
2023/03/21 12:55:23;;;;;;;9.05;4.95;;;12.80;99.90;;;;;;5054656;28;20650;-84
2023/03/21 12:57:49;;;;;;;5.97;3.90;;;12.90;99.90;;;;;;5056050;28;20033;-84
2023/03/21 13:00:21;;;;;;;9.52;4.75;;;13.00;99.90;;;;;;5061727;28;20040;-84
2023/03/21 13:03:02;;;;;;;7.97;4.55;;;13.00;99.90;;;;;;5056502;28;20441;-84